| time (UTC) | temp F | wind direction | speed MPH | gust MPH | rain 1hr in | rain 24hr in | rain mn in | humidity % | barometer mb |
| 20260507061140 | 52 | 15 | 3.0 | 3.0 | 0.05 | 0.04 | 0.04 | 99 | 1012.8 |
| 20260507060638 | 52 | 355 | 3.0 | 3.0 | 0.00 | 0.03 | 0.03 | 99 | 1012.8 |
| 20260507060134 | 52 | 1 | 2.0 | 2.0 | 0.07 | 0.03 | 0.03 | 99 | 1012.8 |
| 20260507055630 | 52 | 13 | 1.0 | 2.0 | 0.07 | 0.03 | 0.03 | 99 | 1012.7 |
| 20260507055126 | 52 | 33 | 1.0 | 1.0 | 0.00 | 0.02 | 0.02 | 99 | 1012.9 |
| 20260507054622 | 52 | 46 | 1.0 | 1.0 | 0.00 | 0.02 | 0.02 | 99 | 1012.8 |
| 20260507054119 | 52 | 54 | 0.0 | 0.0 | 0.00 | 0.02 | 0.02 | 99 | 1012.6 |
| 20260507053617 | 52 | 57 | 1.0 | 1.0 | 0.00 | 0.02 | 0.02 | 99 | 1012.6 |
| 20260507053115 | 52 | 32 | 0.0 | 0.0 | 0.00 | 0.02 | 0.02 | 99 | 1012.6 |
| 20260507052613 | 52 | 24 | 1.0 | 1.0 | 0.00 | 0.02 | 0.02 | 99 | 1012.6 |
| 20260507052109 | 52 | 31 | 0.0 | 0.0 | 0.00 | 0.02 | 0.02 | 99 | 1012.8 |
| 20260507051607 | 52 | 56 | 0.0 | 0.0 | 0.00 | 0.02 | 0.02 | 99 | 1012.6 |
| 20260507051104 | 52 | 43 | 0.0 | 1.0 | 0.00 | 0.02 | 0.02 | 99 | 1012.8 |
| 20260507050600 | 52 | 85 | 2.0 | 3.0 | 0.00 | 0.02 | 0.02 | 99 | 1013.1 |
| 20260507050057 | 52 | 36 | 1.0 | 1.0 | 0.00 | 0.02 | 0.02 | 99 | 1012.7 |
| 20260507045554 | 53 | 15 | 4.0 | 5.0 | 0.00 | 0.02 | 0.02 | 99 | 1012.7 |
| 20260507045051 | 53 | 347 | 3.0 | 3.0 | 0.00 | 0.02 | 0.02 | 99 | 1013.0 |
| 20260507044547 | 53 | 36 | 0.0 | 1.0 | 0.00 | 0.02 | 0.02 | 99 | 1012.8 |
| 20260507044045 | 53 | 325 | 1.0 | 1.0 | 0.00 | 0.02 | 0.02 | 99 | 1013.1 |
| 20260507043540 | 53 | 16 | 3.0 | 5.0 | 0.00 | 0.02 | 0.02 | 99 | 1012.6 |
| 20260507043038 | 53 | 34 | 0.0 | 1.0 | 0.00 | 0.02 | 0.02 | 99 | 1012.5 |
| 20260507042533 | 53 | 341 | 5.0 | 5.0 | 0.00 | 0.02 | 0.02 | 99 | 1012.4 |
| 20260507042029 | 53 | 20 | 3.0 | 3.0 | 0.05 | 0.02 | 0.02 | 99 | 1012.3 |
| 20260507041526 | 54 | 318 | 4.0 | 5.0 | 0.12 | 0.02 | 0.02 | 99 | 1012.6 |
| 20260507041023 | 54 | 65 | 3.0 | 3.0 | 0.07 | 0.01 | 0.01 | 99 | 1012.5 |
| 20260507040519 | 55 | 91 | 2.0 | 2.0 | 0.00 | 0.00 | 0.00 | 99 | 1012.0 |
| 20260507040015 | 55 | 356 | 6.0 | 7.0 | 0.00 | 0.21 | 0.21 | 99 | 1012.2 |
| 20260507035512 | 55 | 357 | 3.0 | 3.0 | 0.00 | 0.21 | 0.21 | 99 | 1012.2 |
| 20260507035009 | 56 | 17 | 3.0 | 3.0 | 0.00 | 0.21 | 0.21 | 99 | 1011.9 |
| 20260507034506 | 56 | 17 | 1.0 | 2.0 | 0.05 | 0.21 | 0.21 | 99 | 1011.9 |
| 20260507034004 | 56 | 17 | 2.0 | 2.0 | 0.05 | 0.21 | 0.21 | 99 | 1011.8 |
| 20260507033501 | 56 | 36 | 1.0 | 1.0 | 0.00 | 0.20 | 0.20 | 98 | 1011.6 |
| 20260507032958 | 57 | 50 | 1.0 | 2.0 | 0.07 | 0.20 | 0.20 | 98 | 1011.7 |
| 20260507032455 | 57 | 309 | 2.0 | 2.0 | 0.14 | 0.20 | 0.20 | 97 | 1012.2 |
| 20260507031951 | 57 | 130 | 1.0 | 2.0 | 0.07 | 0.19 | 0.19 | 96 | 1012.0 |
| 20260507031448 | 57 | 65 | 0.0 | 1.0 | 0.00 | 0.18 | 0.18 | 96 | 1012.0 |
| 20260507030944 | 57 | 41 | 0.0 | 0.0 | 0.00 | 0.18 | 0.18 | 95 | 1011.7 |
| 20260507030441 | 58 | 32 | 1.0 | 1.0 | 0.05 | 0.18 | 0.18 | 94 | 1011.8 |
| 20260507025938 | 58 | 356 | 7.0 | 10.0 | 0.05 | 0.18 | 0.18 | 92 | 1011.7 |
| 20260507025435 | 59 | 331 | 4.0 | 7.0 | 0.00 | 0.17 | 0.17 | 91 | 1011.9 |
| 20260507024933 | 59 | 291 | 4.0 | 5.0 | 0.00 | 0.17 | 0.17 | 92 | 1011.9 |
| 20260507024431 | 59 | 22 | 3.0 | 6.0 | 0.00 | 0.17 | 0.17 | 92 | 1011.9 |
| 20260507023926 | 59 | 354 | 5.0 | 6.0 | 0.00 | 0.17 | 0.17 | 92 | 1011.6 |
| 20260507023423 | 59 | 313 | 2.0 | 2.0 | 0.00 | 0.17 | 0.17 | 93 | 1011.8 |
| 20260507022920 | 59 | 328 | 6.0 | 8.0 | 0.00 | 0.17 | 0.17 | 93 | 1011.6 |
| 20260507022418 | 59 | 77 | 1.0 | 1.0 | 0.00 | 0.17 | 0.17 | 94 | 1011.6 |
| 20260507021913 | 60 | 352 | 2.0 | 5.0 | 0.00 | 0.17 | 0.17 | 95 | 1011.2 |
| 20260507021408 | 60 | 358 | 9.0 | 11.0 | 0.07 | 0.17 | 0.17 | 94 | 1011.4 |
| 20260507020907 | 60 | 56 | 3.0 | 5.0 | 0.07 | 0.17 | 0.17 | 96 | 1011.5 |
| 20260507020403 | 61 | 38 | 1.0 | 1.0 | 0.00 | 0.16 | 0.16 | 96 | 1011.6 |
| 20260507015900 | 61 | 69 | 0.0 | 1.0 | 0.00 | 0.16 | 0.16 | 96 | 1011.6 |
| 20260507015358 | 61 | 4 | 2.0 | 3.0 | 0.00 | 0.16 | 0.16 | 95 | 1011.4 |
| 20260507014855 | 61 | 333 | 2.0 | 2.0 | 0.00 | 0.16 | 0.16 | 94 | 1011.4 |
| 20260507014351 | 61 | 321 | 2.0 | 2.0 | 0.00 | 0.16 | 0.16 | 94 | 1011.6 |
| 20260507013848 | 62 | 349 | 2.0 | 3.0 | 0.00 | 0.16 | 0.16 | 93 | 1011.6 |
| 20260507013345 | 62 | 300 | 4.0 | 5.0 | 0.00 | 0.16 | 0.16 | 93 | 1011.5 |
| 20260507012842 | 62 | 68 | 1.0 | 1.0 | 0.00 | 0.16 | 0.16 | 94 | 1011.7 |
| 20260507012337 | 63 | 35 | 3.0 | 3.0 | 0.00 | 0.16 | 0.16 | 94 | 1011.6 |
| 20260507011834 | 63 | 25 | 1.0 | 1.0 | 0.00 | 0.16 | 0.16 | 94 | 1011.7 |
| 20260507011331 | 63 | 345 | 2.0 | 3.0 | 0.00 | 0.16 | 0.16 | 94 | 1011.9 |
| 20260507010826 | 63 | 357 | 0.0 | 0.0 | 0.00 | 0.16 | 0.16 | 95 | 1011.8 |
| 20260507010322 | 64 | 14 | 1.0 | 2.0 | 0.00 | 0.16 | 0.16 | 95 | 1011.8 |
| 20260507005819 | 64 | 228 | 2.0 | 3.0 | 0.00 | 0.16 | 0.16 | 95 | 1011.7 |
| 20260507005315 | 64 | 20 | 2.0 | 2.0 | 0.00 | 0.16 | 0.16 | 95 | 1011.3 |
| 20260507004807 | 64 | 344 | 2.0 | 2.0 | 0.00 | 0.16 | 0.16 | 95 | 1011.6 |
| 20260507004304 | 64 | 292 | 3.0 | 3.0 | 0.00 | 0.16 | 0.16 | 96 | 1011.5 |
| 20260507003801 | 64 | 320 | 3.0 | 3.0 | 0.00 | 0.16 | 0.16 | 96 | 1011.2 |
| 20260507003256 | 64 | 315 | 2.0 | 2.0 | 0.00 | 0.16 | 0.16 | 98 | 1011.2 |
| 20260507002752 | 65 | 338 | 1.0 | 2.0 | 0.00 | 0.16 | 0.16 | 99 | 1011.2 |
| 20260507002248 | 65 | 12 | 1.0 | 1.0 | 0.00 | 0.16 | 0.16 | 98 | 1010.9 |
| 20260507001745 | 65 | 147 | 0.0 | 0.0 | 0.00 | 0.16 | 0.16 | 98 | 1011.0 |
| 20260507001243 | 65 | 147 | 0.0 | 0.0 | 0.00 | 0.16 | 0.16 | 98 | 1010.8 |
| 20260507000739 | 65 | 148 | 0.0 | 0.0 | 0.00 | 0.16 | 0.16 | 98 | 1010.9 |
| 20260507000235 | 65 | 148 | 0.0 | 0.0 | 0.00 | 0.16 | 0.16 | 97 | 1010.9 |
| 20260506235731 | 66 | 324 | 1.0 | 2.0 | 0.00 | 0.16 | 0.16 | 96 | 1010.7 |
| 20260506235227 | 66 | 11 | 0.0 | 0.0 | 0.00 | 0.16 | 0.16 | 95 | 1010.4 |
| 20260506234724 | 66 | 12 | 0.0 | 0.0 | 0.00 | 0.16 | 0.16 | 94 | 1010.2 |
| 20260506234221 | 66 | 0 | 1.0 | 1.0 | 0.00 | 0.16 | 0.16 | 93 | 1010.3 |
| 20260506233719 | 66 | 2 | 1.0 | 1.0 | 0.00 | 0.16 | 0.16 | 93 | 1010.3 |
| 20260506233215 | 67 | 3 | 0.0 | 0.0 | 0.00 | 0.16 | 0.16 | 93 | 1010.3 |
| 20260506232711 | 67 | 3 | 1.0 | 1.0 | 0.00 | 0.16 | 0.16 | 93 | 1010.1 |
| 20260506232206 | 67 | 350 | 1.0 | 1.0 | 0.00 | 0.16 | 0.16 | 92 | 1010.1 |
| 20260506231704 | 67 | 283 | 2.0 | 2.0 | 0.00 | 0.16 | 0.16 | 92 | 1010.0 |
| 20260506231203 | 67 | 242 | 3.0 | 3.0 | 0.00 | 0.16 | 0.16 | 91 | 1010.0 |
| 20260506230659 | 67 | 263 | 2.0 | 2.0 | 0.00 | 0.16 | 0.16 | 91 | 1010.0 |
| 20260506230156 | 67 | 174 | 1.0 | 2.0 | 0.00 | 0.16 | 0.16 | 92 | 1009.9 |
| 20260506225652 | 67 | 322 | 1.0 | 1.0 | 0.00 | 0.16 | 0.16 | 91 | 1010.0 |
| 20260506225149 | 67 | 274 | 3.0 | 5.0 | 0.00 | 0.16 | 0.16 | 91 | 1010.3 |
| 20260506224645 | 67 | 219 | 3.0 | 3.0 | 0.00 | 0.16 | 0.16 | 91 | 1010.1 |
| 20260506224142 | 67 | 276 | 2.0 | 2.0 | 0.00 | 0.16 | 0.16 | 91 | 1010.3 |
| 20260506223639 | 67 | 268 | 3.0 | 3.0 | 0.00 | 0.16 | 0.16 | 91 | 1010.1 |
| 20260506223135 | 67 | 234 | 3.0 | 3.0 | 0.00 | 0.16 | 0.16 | 90 | 1010.2 |
| 20260506222632 | 67 | 261 | 5.0 | 6.0 | 0.00 | 0.16 | 0.16 | 90 | 1010.1 |
| 20260506222128 | 67 | 206 | 3.0 | 3.0 | 0.00 | 0.16 | 0.16 | 90 | 1010.0 |
| 20260506221626 | 67 | 214 | 4.0 | 5.0 | 0.00 | 0.16 | 0.16 | 90 | 1010.1 |
| 20260506221123 | 68 | 219 | 3.0 | 3.0 | 0.00 | 0.16 | 0.16 | 90 | 1010.1 |
| 20260506220620 | 67 | 216 | 2.0 | 2.0 | 0.00 | 0.16 | 0.16 | 91 | 1010.2 |
| 20260506220115 | 67 | 245 | 3.0 | 3.0 | 0.00 | 0.16 | 0.16 | 92 | 1010.1 |
| 20260506215612 | 67 | 256 | 3.0 | 3.0 | 0.00 | 0.16 | 0.16 | 92 | 1010.1 |
| 20260506215108 | 66 | 112 | 2.0 | 2.0 | 0.00 | 0.16 | 0.16 | 91 | 1009.9 |
| 20260506214605 | 67 | 222 | 4.0 | 5.0 | 0.00 | 0.16 | 0.16 | 91 | 1010.2 |
| 20260506214102 | 66 | 241 | 3.0 | 3.0 | 0.00 | 0.16 | 0.16 | 91 | 1010.0 |
| 20260506213600 | 66 | 272 | 3.0 | 3.0 | 0.00 | 0.16 | 0.16 | 91 | 1009.8 |
| 20260506213057 | 66 | 259 | 5.0 | 6.0 | 0.00 | 0.16 | 0.16 | 91 | 1009.7 |
| 20260506212554 | 67 | 227 | 3.0 | 3.0 | 0.00 | 0.16 | 0.16 | 91 | 1009.5 |
| 20260506212049 | 67 | 218 | 4.0 | 5.0 | 0.00 | 0.16 | 0.16 | 91 | 1009.6 |
| 20260506211545 | 67 | 247 | 3.0 | 5.0 | 0.00 | 0.16 | 0.16 | 90 | 1009.4 |
| 20260506211042 | 67 | 237 | 3.0 | 5.0 | 0.00 | 0.16 | 0.16 | 91 | 1009.5 |
| 20260506210539 | 67 | 268 | 4.0 | 6.0 | 0.00 | 0.16 | 0.16 | 91 | 1009.4 |
| 20260506210035 | 66 | 216 | 3.0 | 5.0 | 0.00 | 0.16 | 0.16 | 91 | 1009.5 |
| 20260506205532 | 66 | 259 | 4.0 | 6.0 | 0.00 | 0.16 | 0.16 | 90 | 1009.5 |
| 20260506205027 | 66 | 245 | 6.0 | 7.0 | 0.00 | 0.16 | 0.16 | 90 | 1009.3 |
| 20260506204526 | 66 | 216 | 5.0 | 7.0 | 0.00 | 0.16 | 0.16 | 90 | 1009.3 |
| 20260506204022 | 66 | 219 | 5.0 | 6.0 | 0.00 | 0.16 | 0.16 | 90 | 1009.3 |
| 20260506203521 | 66 | 270 | 6.0 | 9.0 | 0.00 | 0.16 | 0.16 | 91 | 1009.3 |
| 20260506203017 | 66 | 276 | 5.0 | 6.0 | 0.00 | 0.16 | 0.16 | 91 | 1009.6 |
| 20260506202514 | 66 | 287 | 2.0 | 3.0 | 0.00 | 0.16 | 0.16 | 92 | 1009.3 |
| 20260506202010 | 66 | 196 | 7.0 | 7.0 | 0.00 | 0.16 | 0.16 | 92 | 1009.4 |
| 20260506201508 | 66 | 228 | 4.0 | 5.0 | 0.00 | 0.16 | 0.16 | 93 | 1009.5 |
| 20260506200958 | 65 | 216 | 4.0 | 5.0 | 0.00 | 0.16 | 0.16 | 94 | 1009.4 |
| 20260506200454 | 65 | 233 | 3.0 | 5.0 | 0.00 | 0.16 | 0.16 | 93 | 1009.5 |
| 20260506195945 | 65 | 219 | 5.0 | 6.0 | 0.00 | 0.16 | 0.16 | 93 | 1009.5 |
| 20260506195443 | 65 | 260 | 4.0 | 5.0 | 0.00 | 0.16 | 0.16 | 94 | 1009.4 |
| 20260506194939 | 65 | 249 | 8.0 | 9.0 | 0.00 | 0.16 | 0.16 | 93 | 1009.4 |
| 20260506194437 | 65 | 204 | 4.0 | 5.0 | 0.00 | 0.16 | 0.16 | 93 | 1009.4 |
| 20260506193933 | 65 | 240 | 3.0 | 6.0 | 0.00 | 0.16 | 0.16 | 94 | 1009.7 |
| 20260506193430 | 65 | 251 | 5.0 | 6.0 | 0.00 | 0.16 | 0.16 | 94 | 1009.4 |
| 20260506192927 | 65 | 220 | 7.0 | 9.0 | 0.00 | 0.16 | 0.16 | 94 | 1009.4 |
| 20260506192424 | 65 | 238 | 7.0 | 10.0 | 0.00 | 0.16 | 0.16 | 96 | 1009.4 |
| 20260506191921 | 64 | 233 | 5.0 | 6.0 | 0.00 | 0.16 | 0.16 | 95 | 1009.4 |
| 20260506191417 | 64 | 181 | 5.0 | 7.0 | 0.00 | 0.16 | 0.16 | 95 | 1009.7 |
| 20260506190914 | 64 | 205 | 7.0 | 8.0 | 0.00 | 0.16 | 0.16 | 96 | 1009.6 |
| 20260506190410 | 64 | 254 | 8.0 | 10.0 | 0.00 | 0.16 | 0.16 | 96 | 1009.7 |
| 20260506185907 | 64 | 262 | 7.0 | 10.0 | 0.00 | 0.16 | 0.16 | 97 | 1009.7 |
| 20260506185405 | 64 | 276 | 7.0 | 10.0 | 0.00 | 0.16 | 0.16 | 97 | 1009.7 |
| 20260506184902 | 64 | 177 | 5.0 | 8.0 | 0.00 | 0.16 | 0.16 | 97 | 1009.8 |
| 20260506184358 | 64 | 256 | 5.0 | 6.0 | 0.00 | 0.16 | 0.16 | 98 | 1009.8 |
| 20260506183856 | 63 | 274 | 6.0 | 7.0 | 0.00 | 0.16 | 0.16 | 97 | 1009.7 |
| 20260506183350 | 63 | 267 | 4.0 | 6.0 | 0.00 | 0.16 | 0.16 | 98 | 1009.8 |
| 20260506182848 | 63 | 230 | 6.0 | 8.0 | 0.00 | 0.16 | 0.16 | 99 | 1009.9 |
| 20260506182345 | 62 | 232 | 6.0 | 7.0 | 0.00 | 0.16 | 0.16 | 99 | 1009.9 |
| 20260506181843 | 62 | 247 | 4.0 | 6.0 | 0.00 | 0.16 | 0.16 | 99 | 1010.1 |
| 20260506181341 | 62 | 142 | 5.0 | 7.0 | 0.00 | 0.16 | 0.16 | 99 | 1010.1 |
| 20260506180837 | 62 | 243 | 6.0 | 7.0 | 0.00 | 0.16 | 0.16 | 99 | 1010.3 |
| 20260506180333 | 61 | 225 | 3.0 | 5.0 | 0.00 | 0.16 | 0.16 | 99 | 1010.2 |
| 20260506175830 | 61 | 266 | 5.0 | 6.0 | 0.00 | 0.16 | 0.16 | 99 | 1010.3 |
| 20260506175327 | 60 | 219 | 6.0 | 8.0 | 0.00 | 0.16 | 0.16 | 99 | 1010.3 |
| 20260506174824 | 60 | 209 | 9.0 | 11.0 | 0.00 | 0.16 | 0.16 | 99 | 1010.5 |
| 20260506174321 | 60 | 237 | 7.0 | 8.0 | 0.00 | 0.16 | 0.16 | 99 | 1010.3 |
| 20260506173819 | 60 | 263 | 3.0 | 5.0 | 0.00 | 0.16 | 0.16 | 99 | 1010.1 |
| 20260506173316 | 60 | 249 | 3.0 | 5.0 | 0.00 | 0.16 | 0.16 | 99 | 1010.2 |
| 20260506172813 | 60 | 224 | 5.0 | 7.0 | 0.00 | 0.16 | 0.16 | 99 | 1010.3 |
| 20260506172309 | 60 | 177 | 4.0 | 5.0 | 0.00 | 0.16 | 0.16 | 99 | 1010.2 |
| 20260506171807 | 60 | 237 | 8.0 | 10.0 | 0.00 | 0.16 | 0.16 | 99 | 1009.9 |
| 20260506171303 | 60 | 245 | 7.0 | 8.0 | 0.00 | 0.16 | 0.16 | 99 | 1010.2 |
| 20260506170801 | 60 | 229 | 6.0 | 8.0 | 0.00 | 0.16 | 0.16 | 99 | 1010.4 |
| 20260506170257 | 60 | 186 | 4.0 | 7.0 | 0.00 | 0.16 | 0.16 | 99 | 1010.3 |
| 20260506165756 | 59 | 204 | 6.0 | 7.0 | 0.00 | 0.16 | 0.16 | 99 | 1010.0 |
| 20260506165253 | 59 | 215 | 7.0 | 10.0 | 0.00 | 0.16 | 0.16 | 99 | 1010.1 |
| 20260506164750 | 59 | 239 | 3.0 | 5.0 | 0.00 | 0.16 | 0.16 | 99 | 1010.3 |
| 20260506164247 | 59 | 279 | 3.0 | 3.0 | 0.00 | 0.16 | 0.16 | 99 | 1010.4 |
| 20260506163744 | 59 | 277 | 3.0 | 5.0 | 0.00 | 0.16 | 0.16 | 99 | 1010.2 |
| 20260506163238 | 59 | 214 | 3.0 | 3.0 | 0.00 | 0.16 | 0.16 | 99 | 1010.3 |
| 20260506162735 | 59 | 196 | 6.0 | 7.0 | 0.00 | 0.16 | 0.16 | 99 | 1010.4 |
| 20260506162232 | 59 | 104 | 0.0 | 1.0 | 0.00 | 0.16 | 0.16 | 99 | 1010.2 |
| 20260506161724 | 59 | 234 | 4.0 | 5.0 | 0.00 | 0.16 | 0.16 | 99 | 1010.5 |
| 20260506161221 | 59 | 137 | 4.0 | 5.0 | 0.00 | 0.16 | 0.16 | 99 | 1010.5 |
| 20260506160719 | 59 | 275 | 3.0 | 5.0 | 0.00 | 0.16 | 0.16 | 99 | 1010.6 |
| 20260506160215 | 59 | 245 | 6.0 | 7.0 | 0.00 | 0.16 | 0.16 | 99 | 1010.5 |
| 20260506155713 | 59 | 218 | 5.0 | 6.0 | 0.00 | 0.16 | 0.16 | 99 | 1010.4 |
| 20260506155210 | 59 | 145 | 4.0 | 5.0 | 0.00 | 0.16 | 0.16 | 99 | 1010.3 |
| 20260506153312 | 59 | 197 | 3.0 | 5.0 | 0.00 | 0.16 | 0.16 | 99 | 1010.4 |
| 20260506152809 | 59 | 223 | 6.0 | 9.0 | 0.00 | 0.16 | 0.16 | 99 | 1010.3 |
| 20260506152306 | 59 | 228 | 3.0 | 5.0 | 0.05 | 0.16 | 0.16 | 99 | 1010.6 |
| 20260506151805 | 59 | 108 | 6.0 | 7.0 | 0.07 | 0.15 | 0.15 | 99 | 1010.7 |
| 20260506151301 | 59 | 152 | 5.0 | 7.0 | 0.12 | 0.15 | 0.15 | 99 | 1010.8 |
| 20260506150758 | 59 | 220 | 6.0 | 7.0 | 0.12 | 0.14 | 0.14 | 99 | 1010.8 |
| 20260506150302 | 59 | 176 | 6.0 | 7.0 | 0.07 | 0.13 | 0.13 | 99 | 1011.1 |
| 20260506145752 | 59 | 252 | 8.0 | 11.0 | 0.05 | 0.12 | 0.12 | 99 | 1011.4 |
| 20260506145248 | 59 | 221 | 4.0 | 5.0 | 0.12 | 0.12 | 0.12 | 99 | 1011.1 |
| 20260506144746 | 59 | 243 | 6.0 | 7.0 | 0.07 | 0.11 | 0.11 | 99 | 1010.9 |
| 20260506144243 | 59 | 147 | 6.0 | 7.0 | 0.00 | 0.10 | 0.10 | 99 | 1010.9 |
| 20260506143740 | 59 | 173 | 6.0 | 7.0 | 0.00 | 0.10 | 0.10 | 99 | 1010.9 |
| 20260506143237 | 59 | 215 | 5.0 | 7.0 | 0.00 | 0.10 | 0.10 | 99 | 1011.1 |
| 20260506142736 | 60 | 198 | 7.0 | 8.0 | 0.05 | 0.10 | 0.10 | 99 | 1010.5 |
| 20260506142233 | 60 | 191 | 8.0 | 10.0 | 0.05 | 0.10 | 0.10 | 99 | 1011.0 |
| 20260506141731 | 60 | 95 | 8.0 | 11.0 | 0.00 | 0.09 | 0.09 | 99 | 1010.7 |
| 20260506141230 | 60 | 174 | 2.0 | 3.0 | 0.00 | 0.09 | 0.09 | 99 | 1010.6 |
| 20260506140727 | 60 | 195 | 5.0 | 7.0 | 0.07 | 0.09 | 0.09 | 99 | 1010.4 |
| 20260506140224 | 60 | 243 | 7.0 | 8.0 | 0.07 | 0.09 | 0.09 | 99 | 1010.8 |
| 20260506135720 | 60 | 190 | 7.0 | 8.0 | 0.05 | 0.08 | 0.08 | 99 | 1010.9 |
| 20260506135217 | 60 | 245 | 5.0 | 6.0 | 0.05 | 0.08 | 0.08 | 99 | 1011.1 |
| 20260506134714 | 60 | 189 | 3.0 | 5.0 | 0.07 | 0.07 | 0.07 | 99 | 1011.3 |
| 20260506134210 | 60 | 238 | 5.0 | 6.0 | 0.07 | 0.07 | 0.07 | 99 | 1011.3 |
| 20260506133707 | 60 | 156 | 3.0 | 5.0 | 0.00 | 0.06 | 0.06 | 99 | 1011.2 |
| 20260506133203 | 60 | 171 | 4.0 | 6.0 | 0.07 | 0.06 | 0.06 | 99 | 1011.1 |
| 20260506132701 | 60 | 200 | 5.0 | 8.0 | 0.05 | 0.05 | 0.05 | 99 | 1011.2 |
| 20260506132158 | 60 | 219 | 3.0 | 5.0 | 0.12 | 0.05 | 0.05 | 98 | 1011.2 |
| 20260506131655 | 60 | 214 | 7.0 | 8.0 | 0.12 | 0.04 | 0.04 | 98 | 1011.4 |
| 20260506131151 | 60 | 202 | 3.0 | 3.0 | 0.05 | 0.03 | 0.03 | 97 | 1011.1 |
| 20260506130648 | 60 | 281 | 2.0 | 3.0 | 0.00 | 0.02 | 0.02 | 97 | 1011.1 |
| 20260506130146 | 61 | 186 | 4.0 | 5.0 | 0.07 | 0.02 | 0.02 | 96 | 1011.1 |
| 20260506125644 | 61 | 227 | 4.0 | 6.0 | 0.07 | 0.02 | 0.02 | 95 | 1011.3 |
| 20260506125141 | 61 | 155 | 3.0 | 3.0 | 0.07 | 0.02 | 0.02 | 93 | 1011.3 |
| 20260506124639 | 62 | 155 | 3.0 | 3.0 | 0.05 | 0.01 | 0.01 | 92 | 1010.9 |
| 20260506124137 | 62 | 222 | 5.0 | 6.0 | 0.05 | 0.01 | 0.01 | 91 | 1011.2 |
| 20260506123634 | 62 | 224 | 3.0 | 3.0 | 0.00 | 0.00 | 0.00 | 90 | 1011.0 |
| 20260506123133 | 62 | 251 | 5.0 | 7.0 | 0.00 | 0.00 | 0.00 | 89 | 1011.3 |
| 20260506122629 | 63 | 149 | 2.0 | 2.0 | 0.00 | 0.00 | 0.00 | 88 | 1011.2 |
| 20260506122127 | 63 | 182 | 3.0 | 6.0 | 0.00 | 0.00 | 0.00 | 87 | 1011.4 |
| 20260506121624 | 63 | 274 | 9.0 | 10.0 | 0.00 | 0.00 | 0.00 | 85 | 1011.4 |
| 20260506121120 | 63 | 225 | 6.0 | 9.0 | 0.00 | 0.00 | 0.00 | 85 | 1011.5 |
| 20260506120618 | 64 | 236 | 9.0 | 9.0 | 0.00 | 0.00 | 0.00 | 84 | 1011.5 |
| 20260506120115 | 64 | 212 | 3.0 | 5.0 | 0.00 | 0.00 | 0.00 | 82 | 1011.5 |
| 20260506115614 | 64 | 241 | 4.0 | 6.0 | 0.00 | 0.00 | 0.00 | 83 | 1011.7 |
| 20260506115112 | 64 | 354 | 3.0 | 5.0 | 0.00 | 0.00 | 0.00 | 82 | 1011.3 |
| 20260506114609 | 64 | 251 | 4.0 | 5.0 | 0.00 | 0.00 | 0.00 | 83 | 1011.2 |
| 20260506114107 | 64 | 278 | 6.0 | 8.0 | 0.00 | 0.00 | 0.00 | 82 | 1011.3 |
| 20260506113604 | 64 | 186 | 5.0 | 7.0 | 0.00 | 0.00 | 0.00 | 82 | 1011.0 |
| 20260506113102 | 64 | 235 | 6.0 | 7.0 | 0.00 | 0.00 | 0.00 | 82 | 1011.1 |
| 20260506112558 | 64 | 217 | 5.0 | 6.0 | 0.00 | 0.00 | 0.00 | 82 | 1010.9 |
| 20260506112056 | 64 | 121 | 4.0 | 5.0 | 0.00 | 0.00 | 0.00 | 82 | 1010.7 |
| 20260506111553 | 64 | 192 | 5.0 | 6.0 | 0.00 | 0.00 | 0.00 | 82 | 1011.0 |
| 20260506111050 | 64 | 217 | 5.0 | 5.0 | 0.00 | 0.00 | 0.00 | 81 | 1010.8 |
| 20260506110548 | 64 | 262 | 3.0 | 5.0 | 0.00 | 0.00 | 0.00 | 80 | 1010.6 |
| 20260506110045 | 65 | 261 | 3.0 | 5.0 | 0.00 | 0.00 | 0.00 | 79 | 1011.0 |
| 20260506105541 | 65 | 181 | 11.0 | 13.0 | 0.00 | 0.00 | 0.00 | 79 | 1010.7 |
| 20260506105039 | 65 | 214 | 6.0 | 8.0 | 0.00 | 0.00 | 0.00 | 79 | 1010.7 |
| 20260506104536 | 65 | 190 | 5.0 | 6.0 | 0.00 | 0.00 | 0.00 | 78 | 1010.6 |
| 20260506104034 | 65 | 216 | 6.0 | 8.0 | 0.00 | 0.00 | 0.00 | 78 | 1010.6 |
| 20260506103531 | 65 | 229 | 3.0 | 3.0 | 0.00 | 0.00 | 0.00 | 78 | 1010.5 |
| 20260506103028 | 65 | 210 | 3.0 | 5.0 | 0.00 | 0.00 | 0.00 | 78 | 1010.5 |
| 20260506102526 | 65 | 261 | 9.0 | 10.0 | 0.00 | 0.00 | 0.00 | 78 | 1010.4 |
| 20260506102023 | 65 | 131 | 2.0 | 3.0 | 0.00 | 0.00 | 0.00 | 78 | 1010.2 |
| 20260506101520 | 65 | 265 | 3.0 | 3.0 | 0.00 | 0.00 | 0.00 | 78 | 1010.3 |
| 20260506101017 | 65 | 198 | 7.0 | 10.0 | 0.00 | 0.00 | 0.00 | 77 | 1010.4 |
| 20260506100515 | 65 | 248 | 10.0 | 10.0 | 0.00 | 0.00 | 0.00 | 77 | 1010.4 |
| 20260506100013 | 65 | 211 | 8.0 | 9.0 | 0.00 | 0.00 | 0.00 | 77 | 1010.3 |
| 20260506095512 | 65 | 185 | 8.0 | 10.0 | 0.00 | 0.00 | 0.00 | 77 | 1010.5 |
| 20260506095007 | 65 | 230 | 5.0 | 6.0 | 0.00 | 0.00 | 0.00 | 76 | 1010.5 |
| 20260506094505 | 65 | 155 | 3.0 | 5.0 | 0.00 | 0.00 | 0.00 | 76 | 1010.7 |
| 20260506094003 | 65 | 227 | 5.0 | 7.0 | 0.00 | 0.00 | 0.00 | 76 | 1010.3 |
| 20260506093501 | 65 | 186 | 3.0 | 5.0 | 0.00 | 0.00 | 0.00 | 76 | 1010.4 |
| 20260506092958 | 65 | 178 | 5.0 | 6.0 | 0.00 | 0.00 | 0.00 | 76 | 1010.5 |
| 20260506092456 | 65 | 245 | 4.0 | 6.0 | 0.00 | 0.00 | 0.00 | 76 | 1010.3 |
| 20260506091952 | 65 | 166 | 5.0 | 6.0 | 0.00 | 0.00 | 0.00 | 75 | 1010.5 |
| 20260506091451 | 65 | 186 | 6.0 | 7.0 | 0.00 | 0.00 | 0.00 | 75 | 1010.4 |
| 20260506090947 | 65 | 199 | 1.0 | 2.0 | 0.00 | 0.00 | 0.00 | 75 | 1010.5 |
| 20260506090445 | 66 | 266 | 6.0 | 9.0 | 0.00 | 0.00 | 0.00 | 75 | 1010.6 |
| 20260506085941 | 66 | 175 | 3.0 | 3.0 | 0.00 | 0.00 | 0.00 | 74 | 1010.6 |
| 20260506085438 | 66 | 287 | 1.0 | 2.0 | 0.00 | 0.00 | 0.00 | 74 | 1010.6 |
| 20260506084935 | 66 | 233 | 3.0 | 3.0 | 0.00 | 0.00 | 0.00 | 73 | 1010.5 |
| 20260506084432 | 66 | 183 | 4.0 | 5.0 | 0.00 | 0.00 | 0.00 | 73 | 1010.9 |
| 20260506083928 | 66 | 266 | 5.0 | 7.0 | 0.00 | 0.00 | 0.00 | 73 | 1010.8 |
| 20260506083425 | 66 | 170 | 6.0 | 7.0 | 0.00 | 0.00 | 0.00 | 73 | 1010.8 |
| 20260506082922 | 66 | 220 | 3.0 | 3.0 | 0.00 | 0.00 | 0.00 | 72 | 1010.4 |
| 20260506082420 | 67 | 132 | 1.0 | 2.0 | 0.00 | 0.00 | 0.00 | 71 | 1010.7 |
| 20260506081915 | 67 | 250 | 4.0 | 7.0 | 0.00 | 0.00 | 0.00 | 71 | 1010.7 |
| 20260506081414 | 67 | 260 | 3.0 | 5.0 | 0.00 | 0.00 | 0.00 | 70 | 1010.6 |
| 20260506080911 | 67 | 236 | 5.0 | 6.0 | 0.00 | 0.00 | 0.00 | 70 | 1010.8 |
| 20260506080407 | 68 | 350 | 2.0 | 2.0 | 0.00 | 0.00 | 0.00 | 70 | 1010.7 |
| 20260506073351 | 68 | 196 | 7.0 | 8.0 | 0.00 | 0.00 | 0.00 | 67 | 1010.7 |
| 20260506072848 | 68 | 152 | 3.0 | 3.0 | 0.00 | 0.00 | 0.00 | 68 | 1010.9 |
| 20260506072346 | 68 | 197 | 7.0 | 9.0 | 0.00 | 0.00 | 0.00 | 67 | 1010.8 |
| 20260506071843 | 69 | 236 | 5.0 | 6.0 | 0.00 | 0.00 | 0.00 | 67 | 1011.0 |
| 20260506071341 | 69 | 201 | 3.0 | 6.0 | 0.00 | 0.00 | 0.00 | 66 | 1010.7 |
| 20260506070838 | 69 | 223 | 5.0 | 6.0 | 0.00 | 0.00 | 0.00 | 66 | 1011.0 |
| 20260506070335 | 69 | 193 | 5.0 | 6.0 | 0.00 | 0.00 | 0.00 | 66 | 1011.1 |
| 20260506062312 | 69 | 251 | 3.0 | 5.0 | 0.00 | 0.00 | 0.00 | 64 | 1011.3 |
| 20260506061808 | 70 | 226 | 5.0 | 8.0 | 0.00 | 0.00 | 0.00 | 64 | 1011.5 |
| 20260506061305 | 70 | 239 | 5.0 | 6.0 | 0.00 | 0.00 | 0.00 | 64 | 1011.2 |